createdAt,value
2019-03-19T00:02:30.350Z,4.31
2019-03-19T00:06:37.546Z,4.30
2019-03-19T00:10:44.770Z,4.25
2019-03-19T00:14:53.047Z,4.28
2019-03-19T00:19:00.301Z,4.26
2019-03-19T00:23:07.688Z,4.22
2019-03-19T00:27:14.688Z,4.18
2019-03-19T00:31:24.919Z,4.11
2019-03-19T00:35:31.886Z,4.18
2019-03-19T00:39:38.996Z,4.14
2019-03-19T00:43:46.089Z,4.15
2019-03-19T00:47:52.870Z,4.08
2019-03-19T00:51:59.686Z,4.07
2019-03-19T00:56:06.572Z,4.05
2019-03-19T01:00:14.053Z,3.94
2019-03-19T01:04:21.188Z,3.66
2019-03-19T01:08:28.019Z,3.65
2019-03-19T01:12:34.838Z,3.60
2019-03-19T01:16:41.665Z,3.55
2019-03-19T01:20:48.509Z,3.54
2019-03-19T01:24:55.431Z,3.37
2019-03-19T01:29:02.252Z,3.23
2019-03-19T01:33:10.093Z,3.18
2019-03-19T01:37:16.882Z,3.21
2019-03-19T01:41:23.686Z,3.20
2019-03-19T01:45:30.498Z,3.15
2019-03-19T01:49:37.354Z,3.13
2019-03-19T01:53:44.181Z,3.14
2019-03-19T01:57:51.372Z,3.04
2019-03-19T02:01:58.254Z,3.04
2019-03-19T02:06:05.582Z,2.88
2019-03-19T02:10:12.482Z,2.68
2019-03-19T02:14:19.315Z,2.70
2019-03-19T02:18:26.261Z,2.62
2019-03-19T02:22:33.105Z,2.63
2019-03-19T02:26:40.491Z,2.61
2019-03-19T02:30:47.794Z,2.61
2019-03-19T02:34:55.222Z,2.53
2019-03-19T02:39:02.361Z,2.56
2019-03-19T02:43:09.925Z,2.52
2019-03-19T02:47:17.032Z,2.51
2019-03-19T02:51:24.063Z,2.41
2019-03-19T02:55:31.223Z,2.41
2019-03-19T02:59:38.159Z,2.40
2019-03-19T03:03:44.962Z,2.34
2019-03-19T03:07:51.850Z,2.32
2019-03-19T03:11:58.673Z,2.25
2019-03-19T03:16:05.522Z,2.29
2019-03-19T03:20:15.702Z,2.23
2019-03-19T03:24:22.981Z,2.18
2019-03-19T03:28:30.199Z,1.97
2019-03-19T03:32:37.298Z,1.96
2019-03-19T03:36:44.245Z,1.93
2019-03-19T03:40:51.355Z,1.82
2019-03-19T03:44:58.167Z,1.77
2019-03-19T03:49:05.106Z,1.80
2019-03-19T03:53:12.027Z,1.81
2019-03-19T03:57:18.926Z,1.70
2019-03-19T04:01:25.747Z,1.71
2019-03-19T04:05:32.742Z,1.56
2019-03-19T04:09:39.551Z,1.68
2019-03-19T04:13:46.368Z,1.69
2019-03-19T04:17:53.233Z,1.80
2019-03-19T04:22:00.049Z,1.77
2019-03-19T04:26:06.940Z,1.75
2019-03-19T04:30:14.029Z,1.78
2019-03-19T04:34:20.963Z,1.76
2019-03-19T04:38:27.811Z,1.76
2019-03-19T04:42:34.686Z,1.77
2019-03-19T04:46:41.557Z,1.36
2019-03-19T04:50:48.480Z,1.35
2019-03-19T04:54:55.538Z,1.45
2019-03-19T04:59:02.656Z,1.45
2019-03-19T05:03:09.487Z,1.45
2019-03-19T05:07:17.679Z,1.45
2019-03-19T05:11:24.688Z,1.49
2019-03-19T05:15:31.732Z,1.43
2019-03-19T05:19:38.683Z,1.19
2019-03-19T05:23:45.899Z,0.89
2019-03-19T05:27:53.121Z,0.93
2019-03-19T05:32:00.401Z,0.87
2019-03-19T05:36:09.104Z,1.02
2019-03-19T05:40:16.758Z,0.99
2019-03-19T05:44:23.956Z,0.87
2019-03-19T05:48:31.018Z,0.66
2019-03-19T05:52:38.345Z,0.60
2019-03-19T05:56:45.582Z,0.69
2019-03-19T06:00:52.649Z,0.75
2019-03-19T06:04:59.567Z,0.77
2019-03-19T06:09:10.632Z,0.99
2019-03-19T06:13:17.732Z,1.06
2019-03-19T06:17:24.758Z,1.09
2019-03-19T06:21:31.875Z,1.09
2019-03-19T06:25:38.797Z,1.23
2019-03-19T06:29:46.066Z,1.29
2019-03-19T06:33:53.017Z,1.24
2019-03-19T06:38:00.192Z,2.11
2019-03-19T06:42:07.234Z,1.49
2019-03-19T06:46:14.218Z,1.46
2019-03-19T06:50:21.263Z,1.60
2019-03-19T06:54:28.284Z,1.74
2019-03-19T06:58:38.889Z,1.82
2019-03-19T07:02:46.041Z,1.93
2019-03-19T07:06:53.009Z,2.04
2019-03-19T07:11:00.105Z,2.26
2019-03-19T07:15:09.109Z,2.51
2019-03-19T07:19:16.033Z,2.63
2019-03-19T07:23:23.324Z,2.81
2019-03-19T07:27:30.384Z,2.99
2019-03-19T07:31:37.351Z,3.16
2019-03-19T07:35:46.673Z,3.43
2019-03-19T07:39:53.658Z,3.65
2019-03-19T07:44:00.703Z,3.84
2019-03-19T07:48:07.840Z,3.91
2019-03-19T07:52:14.731Z,4.00
2019-03-19T07:56:21.652Z,4.32
2019-03-19T08:00:28.643Z,4.49
2019-03-19T08:04:35.764Z,4.70
2019-03-19T08:08:42.822Z,4.85
2019-03-19T08:12:49.690Z,5.15
2019-03-19T08:16:56.600Z,5.48
2019-03-19T08:21:03.692Z,5.80
2019-03-19T08:25:11.268Z,5.87
2019-03-19T08:29:18.298Z,6.17
2019-03-19T08:33:25.380Z,6.66
2019-03-19T08:37:32.343Z,6.98
2019-03-19T08:41:39.279Z,7.31
2019-03-19T08:45:46.323Z,8.29
2019-03-19T08:49:53.316Z,8.28
2019-03-19T08:54:00.227Z,7.81
2019-03-19T08:58:07.061Z,8.40
2019-03-19T09:02:13.978Z,8.52
2019-03-19T09:06:20.790Z,7.91
2019-03-19T09:10:27.655Z,9.02
2019-03-19T09:14:36.512Z,9.72
2019-03-19T09:18:44.598Z,9.87
2019-03-19T09:22:51.390Z,10.14
2019-03-19T09:26:58.298Z,10.38
2019-03-19T09:31:06.136Z,10.21
2019-03-19T09:35:13.495Z,10.39
2019-03-19T09:39:20.486Z,11.77
2019-03-19T09:43:27.376Z,10.74
2019-03-19T09:47:34.377Z,11.64
2019-03-19T09:51:41.261Z,11.02
2019-03-19T09:55:48.339Z,11.56
2019-03-19T09:59:55.238Z,9.61
2019-03-19T10:04:02.129Z,10.83
2019-03-19T10:08:08.926Z,9.68
2019-03-19T10:12:15.817Z,10.70
2019-03-19T10:16:22.712Z,9.98
2019-03-19T10:20:29.811Z,10.26
2019-03-19T10:24:36.670Z,9.28
2019-03-19T10:28:45.845Z,9.55
2019-03-19T10:32:52.810Z,9.17
2019-03-19T10:36:59.795Z,9.04
2019-03-19T10:41:06.933Z,9.13
2019-03-19T10:45:14.236Z,9.67
2019-03-19T10:49:21.180Z,9.06
2019-03-19T10:53:28.193Z,10.61
2019-03-19T10:57:35.309Z,10.54
2019-03-19T11:01:42.167Z,10.32
2019-03-19T11:05:49.165Z,9.57
2019-03-19T11:09:56.312Z,9.59
2019-03-19T11:14:03.110Z,9.46
2019-03-19T11:18:09.948Z,9.37
2019-03-19T11:22:16.888Z,9.37
2019-03-19T11:26:23.755Z,9.13
2019-03-19T11:30:30.616Z,9.28
2019-03-19T11:34:37.441Z,9.20
2019-03-19T11:38:44.293Z,9.54
2019-03-19T11:42:51.523Z,9.62
2019-03-19T11:46:58.426Z,10.87
2019-03-19T11:51:05.383Z,11.45
2019-03-19T11:55:12.724Z,12.45
2019-03-19T11:59:19.702Z,13.31
2019-03-19T12:03:27.163Z,13.73
2019-03-19T12:12:05.477Z,14.67
2019-03-19T12:16:12.452Z,14.66
2019-03-19T12:20:20.821Z,14.52
2019-03-19T12:24:28.052Z,15.35
2019-03-19T12:28:39.722Z,14.86
2019-03-19T12:32:43.510Z,15.87
2019-03-19T12:36:50.400Z,15.77
2019-03-19T12:40:57.425Z,16.22
2019-03-19T12:45:04.727Z,16.18
2019-03-19T12:49:12.024Z,14.51
2019-03-19T12:53:18.877Z,15.76
2019-03-19T12:57:25.764Z,14.76
2019-03-19T13:01:32.849Z,15.79
2019-03-19T13:05:40.215Z,14.53
2019-03-19T13:09:47.163Z,14.92
2019-03-19T13:13:53.981Z,15.21
2019-03-19T13:18:00.939Z,15.48
2019-03-19T13:22:07.831Z,14.84
2019-03-19T13:26:14.688Z,15.54
2019-03-19T13:30:21.808Z,15.98
2019-03-19T13:34:28.882Z,15.35
2019-03-19T13:38:35.762Z,15.87
2019-03-19T13:42:43.008Z,14.54
2019-03-19T13:46:49.998Z,14.18
2019-03-19T13:50:57.000Z,13.22
2019-03-19T13:55:03.993Z,14.35
2019-03-19T13:59:13.866Z,13.30
2019-03-19T14:03:20.757Z,14.01
2019-03-19T14:07:27.608Z,14.30
2019-03-19T14:11:35.074Z,14.25
2019-03-19T14:15:43.682Z,14.18
2019-03-19T14:19:51.370Z,13.40
2019-03-19T14:23:58.403Z,14.16
2019-03-19T14:28:05.622Z,14.74
2019-03-19T14:32:12.550Z,14.38
2019-03-19T14:36:19.456Z,13.51
2019-03-19T14:40:27.228Z,14.32
2019-03-19T14:44:34.191Z,13.82
2019-03-19T14:48:41.181Z,13.47
2019-03-19T14:52:48.170Z,12.40
2019-03-19T14:56:55.293Z,12.40
2019-03-19T15:01:03.390Z,12.39
2019-03-19T15:05:11.099Z,12.20
2019-03-19T15:09:17.927Z,11.78
2019-03-19T15:13:25.079Z,11.70
2019-03-19T15:17:34.485Z,11.69
2019-03-19T15:21:41.753Z,11.71
2019-03-19T15:25:48.813Z,11.75
2019-03-19T15:29:55.687Z,11.46
2019-03-19T15:34:02.609Z,10.97
2019-03-19T15:38:09.430Z,11.02
2019-03-19T15:42:16.420Z,10.93
2019-03-19T15:46:25.366Z,10.98
2019-03-19T15:50:32.210Z,10.88
2019-03-19T15:54:39.978Z,10.70
2019-03-19T15:58:46.941Z,10.57
2019-03-19T16:02:54.324Z,10.69
2019-03-19T16:07:02.083Z,10.40
2019-03-19T16:11:09.170Z,10.32
2019-03-19T16:15:17.096Z,10.28
2019-03-19T16:19:24.373Z,10.19
2019-03-19T16:23:31.947Z,10.04
2019-03-19T16:27:40.645Z,10.11
2019-03-19T16:31:51.178Z,9.96
2019-03-19T16:35:58.221Z,9.94
2019-03-19T16:40:08.999Z,9.96
2019-03-19T16:44:15.868Z,9.85
2019-03-19T16:48:23.359Z,9.83
2019-03-19T16:52:34.170Z,9.72
2019-03-19T16:56:42.289Z,9.59
2019-03-19T17:00:50.753Z,9.48
2019-03-19T17:04:59.181Z,9.41
2019-03-19T17:09:09.442Z,9.46
2019-03-19T17:13:17.845Z,9.24
2019-03-19T17:22:55.342Z,9.20
2019-03-19T17:27:02.236Z,9.08
2019-03-19T17:31:10.205Z,9.01
2019-03-19T17:35:17.182Z,8.93
2019-03-19T17:39:25.387Z,8.84
2019-03-19T17:43:32.925Z,8.78
2019-03-19T17:47:40.035Z,8.70
2019-03-19T17:51:46.895Z,8.60
2019-03-19T17:55:53.940Z,8.57
2019-03-19T18:00:00.839Z,8.47
2019-03-19T18:04:07.896Z,8.40
2019-03-19T18:08:14.863Z,8.27
2019-03-19T18:12:21.788Z,8.24
2019-03-19T18:16:28.885Z,8.15
2019-03-19T18:20:35.942Z,8.09
2019-03-19T18:24:46.199Z,8.00
2019-03-19T18:28:53.158Z,7.93
2019-03-19T18:33:00.751Z,7.85
2019-03-19T18:37:07.886Z,7.78
2019-03-19T18:41:14.974Z,7.63
2019-03-19T18:45:22.373Z,7.76
2019-03-19T18:49:29.628Z,7.63
2019-03-19T18:53:36.712Z,7.60
2019-03-19T18:57:43.701Z,7.55
2019-03-19T19:01:51.652Z,7.47
2019-03-19T19:05:58.807Z,7.37
2019-03-19T19:10:06.451Z,7.40
2019-03-19T19:14:13.530Z,7.37
2019-03-19T19:18:20.382Z,7.37
2019-03-19T19:22:27.260Z,7.29
2019-03-19T19:26:34.359Z,7.24
2019-03-19T19:30:41.416Z,7.18
2019-03-19T19:34:48.643Z,7.23
2019-03-19T19:38:55.611Z,7.20
2019-03-19T19:43:02.491Z,7.11
2019-03-19T19:47:09.501Z,7.06
2019-03-19T19:51:16.553Z,7.03
2019-03-19T19:55:23.902Z,6.94
2019-03-19T19:59:30.983Z,6.93
2019-03-19T20:03:38.063Z,6.96
2019-03-19T20:07:45.072Z,6.90
2019-03-19T20:11:51.998Z,6.92
2019-03-19T20:15:59.013Z,6.88
2019-03-19T20:20:08.351Z,6.80
2019-03-19T20:24:16.233Z,6.71
2019-03-19T20:28:25.089Z,6.71
2019-03-19T20:32:32.445Z,6.62
2019-03-19T20:36:39.411Z,6.56
2019-03-19T20:40:49.458Z,6.49
2019-03-19T20:44:57.386Z,6.39
2019-03-19T20:49:05.416Z,6.28
2019-03-19T20:53:12.455Z,6.23
2019-03-19T20:57:19.423Z,6.14
2019-03-19T21:01:26.496Z,6.05
2019-03-19T21:05:33.602Z,6.08
2019-03-19T21:09:40.679Z,6.03
2019-03-19T21:13:47.780Z,5.90
2019-03-19T21:17:54.810Z,5.86
2019-03-19T21:22:02.549Z,5.85
2019-03-19T21:26:09.988Z,5.92
2019-03-19T21:30:18.010Z,5.87
2019-03-19T21:34:25.549Z,5.82
2019-03-19T21:38:32.489Z,5.79
2019-03-19T21:42:39.735Z,5.71
2019-03-19T21:46:47.919Z,5.64
2019-03-19T21:50:55.102Z,5.06
2019-03-19T21:55:03.513Z,5.22
2019-03-19T21:59:10.946Z,5.21
2019-03-19T22:03:17.907Z,5.21
2019-03-19T22:07:25.104Z,5.18
2019-03-19T22:11:32.122Z,5.12
2019-03-19T22:15:39.328Z,5.16
2019-03-19T22:19:46.477Z,5.07
2019-03-19T22:23:53.359Z,5.06
2019-03-19T22:28:00.558Z,4.99
2019-03-19T22:32:07.571Z,4.93
2019-03-19T22:36:16.123Z,5.04
2019-03-19T22:40:23.281Z,4.92
2019-03-19T22:44:30.256Z,4.74
2019-03-19T22:48:37.127Z,4.83
2019-03-19T22:52:44.121Z,4.78
2019-03-19T22:56:51.082Z,4.63
2019-03-19T23:00:58.069Z,4.46
2019-03-19T23:05:05.747Z,4.35
2019-03-19T23:09:13.696Z,4.43
2019-03-19T23:13:20.533Z,4.42
2019-03-19T23:17:27.413Z,4.43
2019-03-19T23:21:34.310Z,4.42
2019-03-19T23:25:41.158Z,4.18
2019-03-19T23:29:48.301Z,3.79
2019-03-19T23:33:55.285Z,3.77
2019-03-19T23:38:02.313Z,3.62
2019-03-19T23:42:09.428Z,3.69
2019-03-19T23:46:19.865Z,3.61
2019-03-19T23:50:26.833Z,3.53
2019-03-19T23:54:33.677Z,3.38
2019-03-19T23:58:41.765Z,3.41
